Albia, New York
Current Conditions -  °F | °C
As of 11:51 AM on Friday 19 Dec 2014 (Local Time) from KALB Reporting Station
Overcast Overcast  
Wind Chill: 19°   Ceiling: 2500
Heat Index: 30°   Visibility: 10mi
Dew Point: 20°   Wind: 16mph
Humidity: 66%   Direction: 290°WNW
Pressure: 30.06"   Gusts: 26mph
Location:  42.7478°N, 73.6049°W
Report Text: KALB 191651Z 29014G23KT 10SM BKN025 OVC033 M01/M07 A3006 RMK AO2 SLP181 T10111067
Loading
Personal Weather Stations






























Interactive Weather Map New forecast layout! Learn more

10-Day Weather Forecast

Advertisements
Track Severe Weather on mobile